الصفحة الرئيسية
METAR-TAF:

METAR-TAF

مطار :

مطار برلين تيجيل الدولي

برلين, ألمانيا

دائرة عرض: 52-34N, خط طول: 013-19E, ارتفاع: 37 متر

مراقبة الطقس الحالي

تاريخ ووقت الإصدار 15 دقيقة قبل الساعة 08:20UTC
ريح 7 عقدة من الشرق, الاتجاه يتراوح بين الشمال و الجنوب الشرقي
درجة الحرارة 21°درجة مئوية
الرطوبة 35%
ضغط 1016 hPa
الرؤية 10 كم أو أكثر
الغيوم لا تقل 1500 م ولا وجود لمزنة ركامية السحاب الأسود

METAR: EDDT 220820Z 09007KT 010V140 CAVOK 21/05 Q1016 NOSIG

زمن: 10:35 (08:35 UTC)

توقعات

تاريخ ووقت الإصدار 3ساعات و 35 دقيقة قبل الساعة 05:00UTC
التوقعات صالحة من22 الساعة 06 UTC إلى 23 الساعة 06 UTC
ريح 8 عقدة من الشرق
الرؤية 10 كم أو أكثر
الغيوم لا تقل 1500 م ولا وجود لمزنة ركامية السحاب الأسود
أصبح
من 22 الساعة 18 UTC إلى 22 الساعة 20 UTC
ريح 5 عقدة من الشمال الشرقي

TAF: EDDT 220500Z 2206/2306 10008KT CAVOK BECMG 2218/2220 04005KT

أرصاد الطقس والتوقعات من أكثر من 4000 مطار (تقارير الطقس للمطار METAR والتنبؤ بالطقس بالمطارTAF).

المحطات المتاحة هي النقط الصفراء والحمراء على الخريطة.

حرك المؤشر فوق النقطة لمعرفة اسم المحطة.

ثم انقر لمعرفة أرصاد وتوقعات الطقس.

لتغيير الخارطة: اضغط على الأزرار الخضراء مع رمز الصليب الأسود للتكبير. على الزر الأخضر مع شرطة للتصغير، أو على الأسهم الخضراء للخرائط المجاورة.


METAR-TAF: